sensor_id;sensor_type;location;lat;lon;timestamp;P1;durP1;ratioP1;P2;durP2;ratioP2
30874;SDS011;17581;43.222;27.924;2023-05-20T00:02:07;15.50;;;8.82;;
30874;SDS011;17581;43.222;27.924;2023-05-20T00:04:32;21.15;;;9.82;;
30874;SDS011;17581;43.222;27.924;2023-05-20T00:06:58;21.83;;;8.35;;
30874;SDS011;17581;43.222;27.924;2023-05-20T00:09:23;15.40;;;8.75;;
30874;SDS011;17581;43.222;27.924;2023-05-20T00:11:49;17.65;;;7.90;;
30874;SDS011;17581;43.222;27.924;2023-05-20T00:14:14;10.35;;;7.47;;
30874;SDS011;17581;43.222;27.924;2023-05-20T00:16:40;18.08;;;8.30;;
30874;SDS011;17581;43.222;27.924;2023-05-20T00:19:05;12.98;;;8.32;;
30874;SDS011;17581;43.222;27.924;2023-05-20T00:21:31;21.60;;;7.85;;
30874;SDS011;17581;43.222;27.924;2023-05-20T00:23:57;15.35;;;8.15;;
30874;SDS011;17581;43.222;27.924;2023-05-20T00:26:23;12.48;;;7.40;;
30874;SDS011;17581;43.222;27.924;2023-05-20T00:28:49;14.65;;;8.32;;
30874;SDS011;17581;43.222;27.924;2023-05-20T00:31:14;15.77;;;8.30;;
30874;SDS011;17581;43.222;27.924;2023-05-20T00:33:40;19.85;;;8.65;;
30874;SDS011;17581;43.222;27.924;2023-05-20T00:36:05;15.55;;;8.40;;
30874;SDS011;17581;43.222;27.924;2023-05-20T00:38:31;11.98;;;8.32;;
30874;SDS011;17581;43.222;27.924;2023-05-20T00:40:57;15.00;;;7.88;;
30874;SDS011;17581;43.222;27.924;2023-05-20T00:43:22;16.17;;;8.10;;
30874;SDS011;17581;43.222;27.924;2023-05-20T00:45:49;14.00;;;8.05;;
30874;SDS011;17581;43.222;27.924;2023-05-20T00:48:16;14.32;;;8.60;;
30874;SDS011;17581;43.222;27.924;2023-05-20T00:50:42;17.13;;;7.97;;
30874;SDS011;17581;43.222;27.924;2023-05-20T00:53:07;11.27;;;8.20;;
30874;SDS011;17581;43.222;27.924;2023-05-20T00:55:34;14.32;;;8.52;;
30874;SDS011;17581;43.222;27.924;2023-05-20T00:57:59;12.90;;;8.43;;
30874;SDS011;17581;43.222;27.924;2023-05-20T01:00:25;18.45;;;7.82;;
30874;SDS011;17581;43.222;27.924;2023-05-20T01:02:51;21.35;;;8.65;;
30874;SDS011;17581;43.222;27.924;2023-05-20T01:05:16;10.80;;;8.15;;
30874;SDS011;17581;43.222;27.924;2023-05-20T01:07:42;23.10;;;7.75;;
30874;SDS011;17581;43.222;27.924;2023-05-20T01:10:07;19.48;;;8.48;;
30874;SDS011;17581;43.222;27.924;2023-05-20T01:12:39;20.10;;;7.93;;
30874;SDS011;17581;43.222;27.924;2023-05-20T01:15:08;19.88;;;8.90;;
30874;SDS011;17581;43.222;27.924;2023-05-20T01:17:39;14.77;;;7.55;;
30874;SDS011;17581;43.222;27.924;2023-05-20T01:20:11;13.13;;;8.40;;
30874;SDS011;17581;43.222;27.924;2023-05-20T01:22:47;22.95;;;9.02;;
30874;SDS011;17581;43.222;27.924;2023-05-20T01:25:13;14.15;;;7.78;;
30874;SDS011;17581;43.222;27.924;2023-05-20T01:27:38;11.65;;;7.38;;
30874;SDS011;17581;43.222;27.924;2023-05-20T01:30:04;11.75;;;7.35;;
30874;SDS011;17581;43.222;27.924;2023-05-20T01:32:31;22.27;;;9.30;;
30874;SDS011;17581;43.222;27.924;2023-05-20T01:35:00;10.85;;;7.68;;
30874;SDS011;17581;43.222;27.924;2023-05-20T01:37:27;25.83;;;8.75;;
30874;SDS011;17581;43.222;27.924;2023-05-20T01:39:54;12.32;;;8.45;;
30874;SDS011;17581;43.222;27.924;2023-05-20T01:42:20;22.50;;;9.15;;
30874;SDS011;17581;43.222;27.924;2023-05-20T01:44:47;14.57;;;8.15;;
30874;SDS011;17581;43.222;27.924;2023-05-20T01:47:13;10.07;;;8.13;;
30874;SDS011;17581;43.222;27.924;2023-05-20T01:49:38;13.65;;;7.80;;
30874;SDS011;17581;43.222;27.924;2023-05-20T01:52:04;20.73;;;8.35;;
30874;SDS011;17581;43.222;27.924;2023-05-20T01:54:29;13.98;;;8.57;;
30874;SDS011;17581;43.222;27.924;2023-05-20T01:56:55;15.60;;;9.18;;
30874;SDS011;17581;43.222;27.924;2023-05-20T01:59:20;18.02;;;7.78;;
30874;SDS011;17581;43.222;27.924;2023-05-20T02:01:46;13.35;;;8.05;;
30874;SDS011;17581;43.222;27.924;2023-05-20T02:04:11;15.60;;;9.40;;
30874;SDS011;17581;43.222;27.924;2023-05-20T02:06:37;19.55;;;8.65;;
30874;SDS011;17581;43.222;27.924;2023-05-20T02:09:02;14.02;;;8.15;;
30874;SDS011;17581;43.222;27.924;2023-05-20T02:11:29;20.55;;;8.80;;
30874;SDS011;17581;43.222;27.924;2023-05-20T02:13:54;12.98;;;8.18;;
30874;SDS011;17581;43.222;27.924;2023-05-20T02:16:20;12.63;;;7.93;;
30874;SDS011;17581;43.222;27.924;2023-05-20T02:18:45;15.75;;;8.48;;
30874;SDS011;17581;43.222;27.924;2023-05-20T02:21:11;19.48;;;8.48;;
30874;SDS011;17581;43.222;27.924;2023-05-20T02:23:36;12.40;;;8.27;;
30874;SDS011;17581;43.222;27.924;2023-05-20T02:26:02;15.90;;;7.60;;
30874;SDS011;17581;43.222;27.924;2023-05-20T02:28:27;14.68;;;7.75;;
30874;SDS011;17581;43.222;27.924;2023-05-20T02:30:52;14.75;;;7.55;;
30874;SDS011;17581;43.222;27.924;2023-05-20T02:33:18;12.40;;;8.35;;
30874;SDS011;17581;43.222;27.924;2023-05-20T02:35:44;16.55;;;8.10;;
30874;SDS011;17581;43.222;27.924;2023-05-20T02:38:10;14.40;;;7.95;;
30874;SDS011;17581;43.222;27.924;2023-05-20T02:40:36;28.10;;;9.57;;
30874;SDS011;17581;43.222;27.924;2023-05-20T02:43:02;19.92;;;7.53;;
30874;SDS011;17581;43.222;27.924;2023-05-20T02:45:27;15.85;;;8.27;;
30874;SDS011;17581;43.222;27.924;2023-05-20T02:47:53;15.80;;;8.23;;
30874;SDS011;17581;43.222;27.924;2023-05-20T02:50:18;16.25;;;7.43;;
30874;SDS011;17581;43.222;27.924;2023-05-20T02:52:44;25.67;;;7.80;;
30874;SDS011;17581;43.222;27.924;2023-05-20T02:55:10;10.88;;;7.82;;
30874;SDS011;17581;43.222;27.924;2023-05-20T02:57:36;12.43;;;7.53;;
30874;SDS011;17581;43.222;27.924;2023-05-20T03:00:05;16.58;;;8.18;;
30874;SDS011;17581;43.222;27.924;2023-05-20T03:02:35;16.70;;;8.38;;
30874;SDS011;17581;43.222;27.924;2023-05-20T03:05:00;22.63;;;7.72;;
30874;SDS011;17581;43.222;27.924;2023-05-20T03:07:26;17.95;;;8.77;;
30874;SDS011;17581;43.222;27.924;2023-05-20T03:09:52;14.07;;;8.68;;
30874;SDS011;17581;43.222;27.924;2023-05-20T03:12:17;18.90;;;9.40;;
30874;SDS011;17581;43.222;27.924;2023-05-20T03:14:43;12.20;;;8.60;;
30874;SDS011;17581;43.222;27.924;2023-05-20T03:17:08;19.80;;;9.95;;
30874;SDS011;17581;43.222;27.924;2023-05-20T03:19:35;17.92;;;8.75;;
30874;SDS011;17581;43.222;27.924;2023-05-20T03:22:01;18.13;;;8.48;;
30874;SDS011;17581;43.222;27.924;2023-05-20T03:24:27;14.13;;;8.38;;
30874;SDS011;17581;43.222;27.924;2023-05-20T03:26:53;17.60;;;8.18;;
30874;SDS011;17581;43.222;27.924;2023-05-20T03:29:18;18.38;;;8.27;;
30874;SDS011;17581;43.222;27.924;2023-05-20T03:31:44;24.48;;;7.90;;
30874;SDS011;17581;43.222;27.924;2023-05-20T03:34:09;16.85;;;8.50;;
30874;SDS011;17581;43.222;27.924;2023-05-20T03:36:35;22.52;;;8.40;;
30874;SDS011;17581;43.222;27.924;2023-05-20T03:39:00;19.73;;;10.07;;
30874;SDS011;17581;43.222;27.924;2023-05-20T03:41:26;23.67;;;11.10;;
30874;SDS011;17581;43.222;27.924;2023-05-20T03:43:52;11.98;;;7.25;;
30874;SDS011;17581;43.222;27.924;2023-05-20T03:46:17;12.90;;;8.43;;
30874;SDS011;17581;43.222;27.924;2023-05-20T03:48:43;18.42;;;8.15;;
30874;SDS011;17581;43.222;27.924;2023-05-20T03:51:08;13.77;;;8.00;;
30874;SDS011;17581;43.222;27.924;2023-05-20T03:53:34;15.23;;;8.55;;
30874;SDS011;17581;43.222;27.924;2023-05-20T03:55:59;25.90;;;8.60;;
30874;SDS011;17581;43.222;27.924;2023-05-20T03:58:25;15.15;;;7.57;;
30874;SDS011;17581;43.222;27.924;2023-05-20T04:00:53;14.93;;;6.72;;
30874;SDS011;17581;43.222;27.924;2023-05-20T04:03:19;13.80;;;7.72;;
30874;SDS011;17581;43.222;27.924;2023-05-20T04:05:44;19.48;;;8.50;;
30874;SDS011;17581;43.222;27.924;2023-05-20T04:08:10;21.25;;;7.63;;
30874;SDS011;17581;43.222;27.924;2023-05-20T04:10:39;12.80;;;7.20;;
30874;SDS011;17581;43.222;27.924;2023-05-20T04:13:06;14.73;;;7.47;;
30874;SDS011;17581;43.222;27.924;2023-05-20T04:15:34;14.10;;;7.47;;
30874;SDS011;17581;43.222;27.924;2023-05-20T04:18:01;15.20;;;7.43;;
30874;SDS011;17581;43.222;27.924;2023-05-20T04:20:26;15.27;;;8.20;;
30874;SDS011;17581;43.222;27.924;2023-05-20T04:22:52;13.05;;;7.22;;
30874;SDS011;17581;43.222;27.924;2023-05-20T04:25:18;11.77;;;8.35;;
30874;SDS011;17581;43.222;27.924;2023-05-20T04:27:44;21.30;;;8.57;;
30874;SDS011;17581;43.222;27.924;2023-05-20T04:30:10;17.02;;;9.50;;
30874;SDS011;17581;43.222;27.924;2023-05-20T04:32:36;16.27;;;8.90;;
30874;SDS011;17581;43.222;27.924;2023-05-20T04:35:02;18.05;;;8.60;;
30874;SDS011;17581;43.222;27.924;2023-05-20T04:37:31;17.23;;;7.40;;
30874;SDS011;17581;43.222;27.924;2023-05-20T04:39:57;13.80;;;8.07;;
30874;SDS011;17581;43.222;27.924;2023-05-20T04:42:22;18.25;;;8.55;;
30874;SDS011;17581;43.222;27.924;2023-05-20T04:44:47;14.32;;;9.45;;
30874;SDS011;17581;43.222;27.924;2023-05-20T04:47:13;14.77;;;8.98;;
30874;SDS011;17581;43.222;27.924;2023-05-20T04:49:39;12.98;;;7.70;;
30874;SDS011;17581;43.222;27.924;2023-05-20T04:52:05;10.98;;;8.63;;
30874;SDS011;17581;43.222;27.924;2023-05-20T04:54:30;13.52;;;7.78;;
30874;SDS011;17581;43.222;27.924;2023-05-20T04:56:57;14.45;;;8.70;;
30874;SDS011;17581;43.222;27.924;2023-05-20T04:59:22;12.57;;;8.68;;
30874;SDS011;17581;43.222;27.924;2023-05-20T05:01:48;18.15;;;8.93;;
30874;SDS011;17581;43.222;27.924;2023-05-20T05:04:13;16.92;;;9.07;;
30874;SDS011;17581;43.222;27.924;2023-05-20T05:06:39;16.90;;;9.65;;
30874;SDS011;17581;43.222;27.924;2023-05-20T05:09:05;15.90;;;8.73;;
30874;SDS011;17581;43.222;27.924;2023-05-20T05:11:30;14.68;;;9.65;;
30874;SDS011;17581;43.222;27.924;2023-05-20T05:13:55;14.65;;;8.95;;
30874;SDS011;17581;43.222;27.924;2023-05-20T05:16:21;14.90;;;9.95;;
30874;SDS011;17581;43.222;27.924;2023-05-20T05:18:46;16.25;;;8.45;;
30874;SDS011;17581;43.222;27.924;2023-05-20T05:21:12;28.77;;;8.98;;
30874;SDS011;17581;43.222;27.924;2023-05-20T05:23:37;23.10;;;10.68;;
30874;SDS011;17581;43.222;27.924;2023-05-20T05:26:03;16.45;;;10.05;;
30874;SDS011;17581;43.222;27.924;2023-05-20T05:28:28;13.07;;;9.02;;
30874;SDS011;17581;43.222;27.924;2023-05-20T05:30:54;26.42;;;10.57;;
30874;SDS011;17581;43.222;27.924;2023-05-20T05:33:20;13.95;;;9.15;;
30874;SDS011;17581;43.222;27.924;2023-05-20T05:35:46;15.52;;;7.95;;
30874;SDS011;17581;43.222;27.924;2023-05-20T05:38:11;16.25;;;9.27;;
30874;SDS011;17581;43.222;27.924;2023-05-20T05:40:37;17.10;;;8.73;;
30874;SDS011;17581;43.222;27.924;2023-05-20T05:43:02;14.60;;;8.20;;
30874;SDS011;17581;43.222;27.924;2023-05-20T05:45:28;13.48;;;8.93;;
30874;SDS011;17581;43.222;27.924;2023-05-20T05:47:53;22.80;;;9.25;;
30874;SDS011;17581;43.222;27.924;2023-05-20T05:50:19;18.70;;;10.25;;
30874;SDS011;17581;43.222;27.924;2023-05-20T05:52:44;26.05;;;9.55;;
30874;SDS011;17581;43.222;27.924;2023-05-20T05:55:10;13.77;;;9.25;;
30874;SDS011;17581;43.222;27.924;2023-05-20T05:57:36;17.95;;;9.15;;
30874;SDS011;17581;43.222;27.924;2023-05-20T06:00:02;17.05;;;8.57;;
30874;SDS011;17581;43.222;27.924;2023-05-20T06:02:28;19.52;;;11.02;;
30874;SDS011;17581;43.222;27.924;2023-05-20T06:04:54;16.42;;;9.90;;
30874;SDS011;17581;43.222;27.924;2023-05-20T06:07:19;18.27;;;9.30;;
30874;SDS011;17581;43.222;27.924;2023-05-20T06:09:45;20.50;;;8.13;;
30874;SDS011;17581;43.222;27.924;2023-05-20T06:12:10;17.83;;;8.48;;
30874;SDS011;17581;43.222;27.924;2023-05-20T06:14:36;20.15;;;8.85;;
30874;SDS011;17581;43.222;27.924;2023-05-20T06:17:03;19.63;;;8.27;;
30874;SDS011;17581;43.222;27.924;2023-05-20T06:19:29;21.73;;;8.55;;
30874;SDS011;17581;43.222;27.924;2023-05-20T06:21:55;17.52;;;7.90;;
30874;SDS011;17581;43.222;27.924;2023-05-20T06:24:22;17.58;;;6.55;;
30874;SDS011;17581;43.222;27.924;2023-05-20T06:26:47;27.70;;;8.27;;
30874;SDS011;17581;43.222;27.924;2023-05-20T06:29:14;24.08;;;8.00;;
30874;SDS011;17581;43.222;27.924;2023-05-20T06:31:40;17.90;;;8.52;;
30874;SDS011;17581;43.222;27.924;2023-05-20T06:34:05;27.85;;;8.07;;
30874;SDS011;17581;43.222;27.924;2023-05-20T06:36:30;24.80;;;7.85;;
30874;SDS011;17581;43.222;27.924;2023-05-20T06:38:56;19.33;;;7.38;;
30874;SDS011;17581;43.222;27.924;2023-05-20T06:41:21;23.23;;;6.47;;
30874;SDS011;17581;43.222;27.924;2023-05-20T06:43:47;22.23;;;8.13;;
30874;SDS011;17581;43.222;27.924;2023-05-20T06:46:12;12.38;;;5.53;;
30874;SDS011;17581;43.222;27.924;2023-05-20T06:48:38;56.88;;;12.70;;
30874;SDS011;17581;43.222;27.924;2023-05-20T06:51:06;19.02;;;5.90;;
30874;SDS011;17581;43.222;27.924;2023-05-20T06:53:33;15.80;;;6.60;;
30874;SDS011;17581;43.222;27.924;2023-05-20T06:55:59;23.23;;;6.72;;
30874;SDS011;17581;43.222;27.924;2023-05-20T06:58:24;27.63;;;8.20;;
30874;SDS011;17581;43.222;27.924;2023-05-20T07:00:49;14.25;;;6.20;;
30874;SDS011;17581;43.222;27.924;2023-05-20T07:03:15;15.02;;;5.47;;
30874;SDS011;17581;43.222;27.924;2023-05-20T07:05:40;26.77;;;7.60;;
30874;SDS011;17581;43.222;27.924;2023-05-20T07:08:06;17.50;;;6.35;;
30874;SDS011;17581;43.222;27.924;2023-05-20T07:10:32;20.20;;;7.70;;
30874;SDS011;17581;43.222;27.924;2023-05-20T07:12:58;18.23;;;7.78;;
30874;SDS011;17581;43.222;27.924;2023-05-20T07:15:24;30.42;;;8.27;;
30874;SDS011;17581;43.222;27.924;2023-05-20T07:17:49;37.92;;;10.55;;
30874;SDS011;17581;43.222;27.924;2023-05-20T07:20:15;21.75;;;8.80;;
30874;SDS011;17581;43.222;27.924;2023-05-20T07:22:41;39.95;;;12.55;;
30874;SDS011;17581;43.222;27.924;2023-05-20T07:25:06;59.65;;;18.05;;
30874;SDS011;17581;43.222;27.924;2023-05-20T07:27:32;18.67;;;10.07;;
30874;SDS011;17581;43.222;27.924;2023-05-20T07:29:58;17.60;;;8.20;;
30874;SDS011;17581;43.222;27.924;2023-05-20T07:32:23;49.88;;;13.93;;
30874;SDS011;17581;43.222;27.924;2023-05-20T07:34:48;55.90;;;13.95;;
30874;SDS011;17581;43.222;27.924;2023-05-20T07:37:14;30.90;;;10.48;;
30874;SDS011;17581;43.222;27.924;2023-05-20T07:39:40;16.45;;;7.70;;
30874;SDS011;17581;43.222;27.924;2023-05-20T07:42:05;24.15;;;9.30;;
30874;SDS011;17581;43.222;27.924;2023-05-20T07:44:31;16.13;;;7.55;;
30874;SDS011;17581;43.222;27.924;2023-05-20T07:46:56;20.63;;;8.73;;
30874;SDS011;17581;43.222;27.924;2023-05-20T07:49:22;36.15;;;11.98;;
30874;SDS011;17581;43.222;27.924;2023-05-20T07:51:47;22.25;;;9.68;;
30874;SDS011;17581;43.222;27.924;2023-05-20T07:54:13;19.08;;;8.10;;
30874;SDS011;17581;43.222;27.924;2023-05-20T07:56:39;22.23;;;10.63;;
30874;SDS011;17581;43.222;27.924;2023-05-20T07:59:05;27.17;;;9.18;;
30874;SDS011;17581;43.222;27.924;2023-05-20T08:01:30;12.35;;;8.27;;
30874;SDS011;17581;43.222;27.924;2023-05-20T08:03:56;11.13;;;8.20;;
30874;SDS011;17581;43.222;27.924;2023-05-20T08:06:22;19.50;;;10.45;;
30874;SDS011;17581;43.222;27.924;2023-05-20T08:08:51;20.75;;;10.23;;
30874;SDS011;17581;43.222;27.924;2023-05-20T08:11:19;31.25;;;11.82;;
30874;SDS011;17581;43.222;27.924;2023-05-20T08:13:47;22.77;;;10.48;;
30874;SDS011;17581;43.222;27.924;2023-05-20T08:16:13;16.42;;;9.70;;
30874;SDS011;17581;43.222;27.924;2023-05-20T08:18:39;17.98;;;9.23;;
30874;SDS011;17581;43.222;27.924;2023-05-20T08:21:05;16.67;;;9.82;;
30874;SDS011;17581;43.222;27.924;2023-05-20T08:23:34;16.45;;;10.63;;
30874;SDS011;17581;43.222;27.924;2023-05-20T08:26:01;15.05;;;9.85;;
30874;SDS011;17581;43.222;27.924;2023-05-20T08:28:27;39.30;;;12.95;;
30874;SDS011;17581;43.222;27.924;2023-05-20T08:30:53;36.38;;;18.63;;
30874;SDS011;17581;43.222;27.924;2023-05-20T08:33:19;18.95;;;11.40;;
30874;SDS011;17581;43.222;27.924;2023-05-20T08:35:46;23.67;;;12.68;;
30874;SDS011;17581;43.222;27.924;2023-05-20T08:38:12;15.15;;;9.85;;
30874;SDS011;17581;43.222;27.924;2023-05-20T08:40:38;18.23;;;11.63;;
30874;SDS011;17581;43.222;27.924;2023-05-20T08:43:03;17.75;;;11.05;;
30874;SDS011;17581;43.222;27.924;2023-05-20T08:45:33;20.38;;;11.95;;
30874;SDS011;17581;43.222;27.924;2023-05-20T08:48:01;19.30;;;11.00;;
30874;SDS011;17581;43.222;27.924;2023-05-20T08:50:28;19.70;;;11.38;;
30874;SDS011;17581;43.222;27.924;2023-05-20T08:52:54;22.77;;;13.40;;
30874;SDS011;17581;43.222;27.924;2023-05-20T08:57:51;23.83;;;13.25;;
30874;SDS011;17581;43.222;27.924;2023-05-20T09:00:18;24.65;;;14.27;;
30874;SDS011;17581;43.222;27.924;2023-05-20T09:02:46;19.50;;;12.88;;
30874;SDS011;17581;43.222;27.924;2023-05-20T09:05:11;22.00;;;13.25;;
30874;SDS011;17581;43.222;27.924;2023-05-20T09:07:37;20.70;;;12.98;;
30874;SDS011;17581;43.222;27.924;2023-05-20T09:10:03;32.13;;;13.43;;
30874;SDS011;17581;43.222;27.924;2023-05-20T09:12:29;24.88;;;11.65;;
30874;SDS011;17581;43.222;27.924;2023-05-20T09:14:55;16.52;;;11.43;;
30874;SDS011;17581;43.222;27.924;2023-05-20T09:17:20;22.00;;;12.20;;
30874;SDS011;17581;43.222;27.924;2023-05-20T09:19:50;17.73;;;12.18;;
30874;SDS011;17581;43.222;27.924;2023-05-20T09:22:21;20.30;;;11.88;;
30874;SDS011;17581;43.222;27.924;2023-05-20T09:24:50;17.63;;;10.95;;
30874;SDS011;17581;43.222;27.924;2023-05-20T09:27:16;15.50;;;10.95;;
30874;SDS011;17581;43.222;27.924;2023-05-20T09:29:42;17.70;;;10.75;;
30874;SDS011;17581;43.222;27.924;2023-05-20T09:32:12;18.67;;;12.40;;
30874;SDS011;17581;43.222;27.924;2023-05-20T09:34:38;16.92;;;11.52;;
30874;SDS011;17581;43.222;27.924;2023-05-20T09:37:05;17.00;;;11.60;;
30874;SDS011;17581;43.222;27.924;2023-05-20T09:39:32;16.27;;;11.50;;
30874;SDS011;17581;43.222;27.924;2023-05-20T09:42:01;16.85;;;12.48;;
30874;SDS011;17581;43.222;27.924;2023-05-20T09:44:38;19.95;;;11.02;;
30874;SDS011;17581;43.222;27.924;2023-05-20T09:47:05;21.25;;;11.60;;
30874;SDS011;17581;43.222;27.924;2023-05-20T09:49:31;21.08;;;11.85;;
30874;SDS011;17581;43.222;27.924;2023-05-20T09:51:59;29.17;;;12.85;;
30874;SDS011;17581;43.222;27.924;2023-05-20T09:54:27;18.58;;;11.20;;
30874;SDS011;17581;43.222;27.924;2023-05-20T09:56:55;19.98;;;12.43;;
30874;SDS011;17581;43.222;27.924;2023-05-20T09:59:23;18.92;;;12.35;;
30874;SDS011;17581;43.222;27.924;2023-05-20T10:01:50;19.00;;;12.35;;
30874;SDS011;17581;43.222;27.924;2023-05-20T10:04:16;18.42;;;11.13;;
30874;SDS011;17581;43.222;27.924;2023-05-20T10:07:07;17.67;;;10.82;;
30874;SDS011;17581;43.222;27.924;2023-05-20T10:09:48;30.85;;;11.90;;
30874;SDS011;17581;43.222;27.924;2023-05-20T10:12:31;14.27;;;11.00;;
30874;SDS011;17581;43.222;27.924;2023-05-20T10:17:43;41.85;;;16.88;;
30874;SDS011;17581;43.222;27.924;2023-05-20T10:20:17;37.70;;;15.40;;
30874;SDS011;17581;43.222;27.924;2023-05-20T10:22:43;43.08;;;14.88;;
30874;SDS011;17581;43.222;27.924;2023-05-20T10:25:24;32.10;;;13.93;;
30874;SDS011;17581;43.222;27.924;2023-05-20T10:28:02;36.45;;;15.02;;
30874;SDS011;17581;43.222;27.924;2023-05-20T10:30:33;32.83;;;13.45;;
30874;SDS011;17581;43.222;27.924;2023-05-20T10:33:02;36.97;;;12.32;;
30874;SDS011;17581;43.222;27.924;2023-05-20T10:35:29;47.72;;;11.77;;
30874;SDS011;17581;43.222;27.924;2023-05-20T10:38:05;25.42;;;10.07;;
30874;SDS011;17581;43.222;27.924;2023-05-20T10:40:33;19.45;;;7.50;;
30874;SDS011;17581;43.222;27.924;2023-05-20T10:43:07;30.42;;;9.10;;
30874;SDS011;17581;43.222;27.924;2023-05-20T10:45:46;51.85;;;9.07;;
30874;SDS011;17581;43.222;27.924;2023-05-20T10:48:23;35.45;;;9.65;;
30874;SDS011;17581;43.222;27.924;2023-05-20T10:50:50;70.60;;;11.00;;
30874;SDS011;17581;43.222;27.924;2023-05-20T10:53:20;26.15;;;6.35;;
30874;SDS011;17581;43.222;27.924;2023-05-20T10:55:47;20.60;;;5.40;;
30874;SDS011;17581;43.222;27.924;2023-05-20T10:58:17;56.85;;;9.25;;
30874;SDS011;17581;43.222;27.924;2023-05-20T11:00:43;32.78;;;7.45;;
30874;SDS011;17581;43.222;27.924;2023-05-20T11:03:09;25.63;;;6.85;;
30874;SDS011;17581;43.222;27.924;2023-05-20T11:05:40;58.85;;;9.63;;
30874;SDS011;17581;43.222;27.924;2023-05-20T11:08:07;38.00;;;7.70;;
30874;SDS011;17581;43.222;27.924;2023-05-20T11:10:34;30.42;;;5.80;;
30874;SDS011;17581;43.222;27.924;2023-05-20T11:13:01;39.47;;;8.07;;
30874;SDS011;17581;43.222;27.924;2023-05-20T11:15:28;15.23;;;5.88;;
30874;SDS011;17581;43.222;27.924;2023-05-20T11:17:55;29.48;;;6.53;;
30874;SDS011;17581;43.222;27.924;2023-05-20T11:20:23;18.20;;;5.90;;
30874;SDS011;17581;43.222;27.924;2023-05-20T11:22:50;38.25;;;6.97;;
30874;SDS011;17581;43.222;27.924;2023-05-20T11:25:16;25.83;;;5.15;;
30874;SDS011;17581;43.222;27.924;2023-05-20T11:27:42;20.02;;;5.65;;
30874;SDS011;17581;43.222;27.924;2023-05-20T11:30:09;35.20;;;5.82;;
30874;SDS011;17581;43.222;27.924;2023-05-20T11:32:37;21.17;;;5.20;;
30874;SDS011;17581;43.222;27.924;2023-05-20T11:35:02;30.88;;;5.93;;
30874;SDS011;17581;43.222;27.924;2023-05-20T11:37:29;19.20;;;5.32;;
30874;SDS011;17581;43.222;27.924;2023-05-20T11:40:04;11.30;;;5.00;;
30874;SDS011;17581;43.222;27.924;2023-05-20T11:42:34;19.48;;;6.05;;
30874;SDS011;17581;43.222;27.924;2023-05-20T11:45:00;21.27;;;7.00;;
30874;SDS011;17581;43.222;27.924;2023-05-20T11:47:26;26.38;;;6.82;;
30874;SDS011;17581;43.222;27.924;2023-05-20T11:49:52;18.42;;;6.57;;
30874;SDS011;17581;43.222;27.924;2023-05-20T11:52:17;42.53;;;7.25;;
30874;SDS011;17581;43.222;27.924;2023-05-20T11:54:43;18.05;;;6.85;;
30874;SDS011;17581;43.222;27.924;2023-05-20T11:57:12;35.33;;;8.27;;
30874;SDS011;17581;43.222;27.924;2023-05-20T11:59:37;22.70;;;7.28;;
30874;SDS011;17581;43.222;27.924;2023-05-20T12:02:03;28.67;;;7.65;;
30874;SDS011;17581;43.222;27.924;2023-05-20T12:04:29;22.00;;;6.78;;
30874;SDS011;17581;43.222;27.924;2023-05-20T12:06:54;17.50;;;6.68;;
30874;SDS011;17581;43.222;27.924;2023-05-20T12:09:19;17.25;;;6.25;;
30874;SDS011;17581;43.222;27.924;2023-05-20T12:11:46;31.02;;;8.05;;
30874;SDS011;17581;43.222;27.924;2023-05-20T12:14:11;20.92;;;6.70;;
30874;SDS011;17581;43.222;27.924;2023-05-20T12:16:37;14.48;;;7.22;;
30874;SDS011;17581;43.222;27.924;2023-05-20T12:19:03;15.43;;;6.00;;
30874;SDS011;17581;43.222;27.924;2023-05-20T12:21:29;23.67;;;7.97;;
30874;SDS011;17581;43.222;27.924;2023-05-20T12:23:55;32.33;;;7.90;;
30874;SDS011;17581;43.222;27.924;2023-05-20T12:26:25;24.70;;;7.50;;
30874;SDS011;17581;43.222;27.924;2023-05-20T12:28:52;41.40;;;7.88;;
30874;SDS011;17581;43.222;27.924;2023-05-20T12:31:17;12.07;;;5.75;;
30874;SDS011;17581;43.222;27.924;2023-05-20T12:33:43;13.88;;;5.18;;
30874;SDS011;17581;43.222;27.924;2023-05-20T12:36:08;13.95;;;5.32;;
30874;SDS011;17581;43.222;27.924;2023-05-20T12:38:34;17.50;;;5.55;;
30874;SDS011;17581;43.222;27.924;2023-05-20T12:41:00;19.27;;;5.55;;
30874;SDS011;17581;43.222;27.924;2023-05-20T12:43:26;17.25;;;5.20;;
30874;SDS011;17581;43.222;27.924;2023-05-20T12:45:52;12.23;;;5.90;;
30874;SDS011;17581;43.222;27.924;2023-05-20T12:48:18;17.88;;;5.85;;
30874;SDS011;17581;43.222;27.924;2023-05-20T12:50:43;20.33;;;6.35;;
30874;SDS011;17581;43.222;27.924;2023-05-20T12:53:08;30.30;;;6.18;;
30874;SDS011;17581;43.222;27.924;2023-05-20T12:55:34;28.20;;;6.80;;
30874;SDS011;17581;43.222;27.924;2023-05-20T12:57:59;17.73;;;6.32;;
30874;SDS011;17581;43.222;27.924;2023-05-20T13:00:25;32.50;;;7.05;;
30874;SDS011;17581;43.222;27.924;2023-05-20T13:02:50;23.67;;;5.95;;
30874;SDS011;17581;43.222;27.924;2023-05-20T13:05:17;21.38;;;5.97;;
30874;SDS011;17581;43.222;27.924;2023-05-20T13:07:42;24.65;;;6.00;;
30874;SDS011;17581;43.222;27.924;2023-05-20T13:10:08;17.88;;;5.57;;
30874;SDS011;17581;43.222;27.924;2023-05-20T13:12:35;15.02;;;4.93;;
30874;SDS011;17581;43.222;27.924;2023-05-20T13:15:02;12.90;;;4.95;;
30874;SDS011;17581;43.222;27.924;2023-05-20T13:17:28;44.03;;;7.65;;
30874;SDS011;17581;43.222;27.924;2023-05-20T13:19:54;26.38;;;6.55;;
30874;SDS011;17581;43.222;27.924;2023-05-20T13:22:20;14.10;;;5.90;;
30874;SDS011;17581;43.222;27.924;2023-05-20T13:24:45;20.08;;;5.75;;
30874;SDS011;17581;43.222;27.924;2023-05-20T13:27:11;29.13;;;7.38;;
30874;SDS011;17581;43.222;27.924;2023-05-20T13:29:36;21.35;;;7.90;;
30874;SDS011;17581;43.222;27.924;2023-05-20T13:32:02;29.75;;;7.20;;
30874;SDS011;17581;43.222;27.924;2023-05-20T13:34:28;21.13;;;5.65;;
30874;SDS011;17581;43.222;27.924;2023-05-20T13:36:54;17.67;;;6.88;;
30874;SDS011;17581;43.222;27.924;2023-05-20T13:39:20;19.45;;;6.35;;
30874;SDS011;17581;43.222;27.924;2023-05-20T13:41:45;29.38;;;5.90;;
30874;SDS011;17581;43.222;27.924;2023-05-20T13:44:11;32.25;;;7.32;;
30874;SDS011;17581;43.222;27.924;2023-05-20T13:46:36;39.38;;;6.20;;
30874;SDS011;17581;43.222;27.924;2023-05-20T13:49:03;18.05;;;6.55;;
30874;SDS011;17581;43.222;27.924;2023-05-20T13:51:29;31.83;;;7.13;;
30874;SDS011;17581;43.222;27.924;2023-05-20T13:53:55;31.13;;;7.18;;
30874;SDS011;17581;43.222;27.924;2023-05-20T13:56:21;27.70;;;7.63;;
30874;SDS011;17581;43.222;27.924;2023-05-20T13:58:46;18.60;;;6.82;;
30874;SDS011;17581;43.222;27.924;2023-05-20T14:01:12;29.05;;;6.80;;
30874;SDS011;17581;43.222;27.924;2023-05-20T14:03:39;30.65;;;7.85;;
30874;SDS011;17581;43.222;27.924;2023-05-20T14:06:05;32.03;;;6.50;;
30874;SDS011;17581;43.222;27.924;2023-05-20T14:08:31;26.80;;;8.23;;
30874;SDS011;17581;43.222;27.924;2023-05-20T14:10:56;26.02;;;7.70;;
30874;SDS011;17581;43.222;27.924;2023-05-20T14:13:22;33.20;;;8.65;;
30874;SDS011;17581;43.222;27.924;2023-05-20T14:15:48;19.13;;;6.30;;
30874;SDS011;17581;43.222;27.924;2023-05-20T14:18:15;35.58;;;7.47;;
30874;SDS011;17581;43.222;27.924;2023-05-20T14:20:41;20.70;;;8.00;;